sensor_id;sensor_type;location;lat;lon;timestamp;temperature;humidity
41447;DHT22;27185;52.040;4.490;2022-10-17T00:01:03;16.10;99.90
41447;DHT22;27185;52.040;4.490;2022-10-17T00:03:49;16.10;99.90
41447;DHT22;27185;52.040;4.490;2022-10-17T00:06:34;16.10;99.90
41447;DHT22;27185;52.040;4.490;2022-10-17T00:09:20;16.10;99.90
41447;DHT22;27185;52.040;4.490;2022-10-17T00:12:05;16.00;99.90
41447;DHT22;27185;52.040;4.490;2022-10-17T00:14:51;16.00;99.90
41447;DHT22;27185;52.040;4.490;2022-10-17T00:17:37;16.00;99.90
41447;DHT22;27185;52.040;4.490;2022-10-17T00:20:22;16.00;99.90
41447;DHT22;27185;52.040;4.490;2022-10-17T00:23:08;15.90;99.90
41447;DHT22;27185;52.040;4.490;2022-10-17T00:25:58;16.00;99.90
41447;DHT22;27185;52.040;4.490;2022-10-17T00:28:49;15.90;99.90
41447;DHT22;27185;52.040;4.490;2022-10-17T00:31:35;15.90;99.90
41447;DHT22;27185;52.040;4.490;2022-10-17T00:34:21;15.90;99.90
41447;DHT22;27185;52.040;4.490;2022-10-17T00:37:06;15.90;99.90
41447;DHT22;27185;52.040;4.490;2022-10-17T00:39:53;15.90;99.90
41447;DHT22;27185;52.040;4.490;2022-10-17T00:42:38;15.90;99.90
41447;DHT22;27185;52.040;4.490;2022-10-17T00:45:27;15.80;99.90
41447;DHT22;27185;52.040;4.490;2022-10-17T00:48:14;15.90;99.90
41447;DHT22;27185;52.040;4.490;2022-10-17T00:51:00;15.90;99.90
41447;DHT22;27185;52.040;4.490;2022-10-17T00:53:45;15.90;99.90
41447;DHT22;27185;52.040;4.490;2022-10-17T00:56:31;15.90;99.90
41447;DHT22;27185;52.040;4.490;2022-10-17T00:59:19;15.90;99.90
41447;DHT22;27185;52.040;4.490;2022-10-17T01:02:09;15.90;99.90
41447;DHT22;27185;52.040;4.490;2022-10-17T01:04:55;15.90;99.90
41447;DHT22;27185;52.040;4.490;2022-10-17T01:07:44;15.90;99.90
41447;DHT22;27185;52.040;4.490;2022-10-17T01:10:38;15.90;99.90
41447;DHT22;27185;52.040;4.490;2022-10-17T01:13:33;15.90;99.90
41447;DHT22;27185;52.040;4.490;2022-10-17T01:22:49;15.90;99.90
41447;DHT22;27185;52.040;4.490;2022-10-17T01:31:54;15.90;99.90
41447;DHT22;27185;52.040;4.490;2022-10-17T01:35:06;15.90;99.90
41447;DHT22;27185;52.040;4.490;2022-10-17T01:37:55;15.90;99.90
41447;DHT22;27185;52.040;4.490;2022-10-17T01:40:51;15.80;99.90
41447;DHT22;27185;52.040;4.490;2022-10-17T01:43:50;15.80;99.90
41447;DHT22;27185;52.040;4.490;2022-10-17T01:46:40;15.80;99.90
41447;DHT22;27185;52.040;4.490;2022-10-17T01:49:28;15.80;99.90
41447;DHT22;27185;52.040;4.490;2022-10-17T01:52:26;15.80;99.90
41447;DHT22;27185;52.040;4.490;2022-10-17T01:55:17;15.80;99.90
41447;DHT22;27185;52.040;4.490;2022-10-17T01:58:11;15.80;99.90
41447;DHT22;27185;52.040;4.490;2022-10-17T02:01:00;15.80;99.90
41447;DHT22;27185;52.040;4.490;2022-10-17T02:03:47;15.80;99.90
41447;DHT22;27185;52.040;4.490;2022-10-17T02:06:37;15.80;99.90
41447;DHT22;27185;52.040;4.490;2022-10-17T02:09:24;15.80;99.90
41447;DHT22;27185;52.040;4.490;2022-10-17T02:25:34;15.80;99.90
41447;DHT22;27185;52.040;4.490;2022-10-17T02:31:59;15.80;99.90
41447;DHT22;27185;52.040;4.490;2022-10-17T02:34:49;15.70;99.90
41447;DHT22;27185;52.040;4.490;2022-10-17T02:37:36;15.80;99.90
41447;DHT22;27185;52.040;4.490;2022-10-17T02:40:23;15.80;99.90
41447;DHT22;27185;52.040;4.490;2022-10-17T02:43:10;15.70;99.90
41447;DHT22;27185;52.040;4.490;2022-10-17T02:45:56;15.70;99.90
41447;DHT22;27185;52.040;4.490;2022-10-17T02:48:47;15.80;99.90
41447;DHT22;27185;52.040;4.490;2022-10-17T02:51:53;15.80;99.90
41447;DHT22;27185;52.040;4.490;2022-10-17T02:54:44;15.80;99.90
41447;DHT22;27185;52.040;4.490;2022-10-17T02:57:43;15.80;99.90
41447;DHT22;27185;52.040;4.490;2022-10-17T03:00:30;15.80;99.90
41447;DHT22;27185;52.040;4.490;2022-10-17T03:06:04;15.90;99.90
41447;DHT22;27185;52.040;4.490;2022-10-17T03:08:50;16.00;99.90
41447;DHT22;27185;52.040;4.490;2022-10-17T03:11:35;16.00;99.90
41447;DHT22;27185;52.040;4.490;2022-10-17T03:14:21;16.10;99.90
41447;DHT22;27185;52.040;4.490;2022-10-17T03:17:06;16.20;99.90
41447;DHT22;27185;52.040;4.490;2022-10-17T03:19:52;16.20;99.90
41447;DHT22;27185;52.040;4.490;2022-10-17T03:22:38;16.30;99.90
41447;DHT22;27185;52.040;4.490;2022-10-17T03:25:23;16.40;99.90
41447;DHT22;27185;52.040;4.490;2022-10-17T03:28:10;16.40;99.90
41447;DHT22;27185;52.040;4.490;2022-10-17T03:30:56;16.50;99.90
41447;DHT22;27185;52.040;4.490;2022-10-17T03:33:42;16.50;99.90
41447;DHT22;27185;52.040;4.490;2022-10-17T03:36:27;16.60;99.90
41447;DHT22;27185;52.040;4.490;2022-10-17T03:39:13;16.60;99.90
41447;DHT22;27185;52.040;4.490;2022-10-17T03:41:58;16.70;99.90
41447;DHT22;27185;52.040;4.490;2022-10-17T03:44:44;16.70;99.90
41447;DHT22;27185;52.040;4.490;2022-10-17T03:47:29;16.70;99.90
41447;DHT22;27185;52.040;4.490;2022-10-17T03:50:15;16.70;99.90
41447;DHT22;27185;52.040;4.490;2022-10-17T03:53:01;16.70;99.90
41447;DHT22;27185;52.040;4.490;2022-10-17T03:55:46;16.80;99.90
41447;DHT22;27185;52.040;4.490;2022-10-17T03:58:32;16.80;99.90
41447;DHT22;27185;52.040;4.490;2022-10-17T04:01:18;16.80;99.90
41447;DHT22;27185;52.040;4.490;2022-10-17T04:04:03;16.80;99.90
41447;DHT22;27185;52.040;4.490;2022-10-17T04:06:49;16.80;99.90
41447;DHT22;27185;52.040;4.490;2022-10-17T04:09:35;16.80;99.90
41447;DHT22;27185;52.040;4.490;2022-10-17T04:12:20;16.90;99.90
41447;DHT22;27185;52.040;4.490;2022-10-17T04:15:06;16.90;99.90
41447;DHT22;27185;52.040;4.490;2022-10-17T04:17:52;16.90;99.90
41447;DHT22;27185;52.040;4.490;2022-10-17T04:20:38;17.00;99.90
41447;DHT22;27185;52.040;4.490;2022-10-17T04:23:23;17.00;99.90
41447;DHT22;27185;52.040;4.490;2022-10-17T04:26:10;17.00;99.90
41447;DHT22;27185;52.040;4.490;2022-10-17T04:28:56;17.10;99.90
41447;DHT22;27185;52.040;4.490;2022-10-17T04:31:42;17.10;99.90
41447;DHT22;27185;52.040;4.490;2022-10-17T04:34:27;17.20;99.90
41447;DHT22;27185;52.040;4.490;2022-10-17T04:37:13;17.20;99.90
41447;DHT22;27185;52.040;4.490;2022-10-17T04:39:58;17.30;99.90
41447;DHT22;27185;52.040;4.490;2022-10-17T04:42:44;17.40;99.90
41447;DHT22;27185;52.040;4.490;2022-10-17T04:45:29;17.50;99.90
41447;DHT22;27185;52.040;4.490;2022-10-17T04:48:15;17.60;99.90
41447;DHT22;27185;52.040;4.490;2022-10-17T04:51:17;17.70;99.90
41447;DHT22;27185;52.040;4.490;2022-10-17T04:54:03;17.80;99.90
41447;DHT22;27185;52.040;4.490;2022-10-17T04:56:48;17.90;99.90
41447;DHT22;27185;52.040;4.490;2022-10-17T04:59:34;17.90;99.90
41447;DHT22;27185;52.040;4.490;2022-10-17T05:02:19;18.00;99.90
41447;DHT22;27185;52.040;4.490;2022-10-17T05:05:05;18.00;99.90
41447;DHT22;27185;52.040;4.490;2022-10-17T05:07:51;18.10;99.90
41447;DHT22;27185;52.040;4.490;2022-10-17T05:10:42;18.10;99.90
41447;DHT22;27185;52.040;4.490;2022-10-17T05:13:28;18.10;99.90
41447;DHT22;27185;52.040;4.490;2022-10-17T05:16:13;18.10;99.90
41447;DHT22;27185;52.040;4.490;2022-10-17T05:18:59;18.10;99.90
41447;DHT22;27185;52.040;4.490;2022-10-17T05:21:44;18.10;99.90
41447;DHT22;27185;52.040;4.490;2022-10-17T05:24:30;18.20;99.90
41447;DHT22;27185;52.040;4.490;2022-10-17T05:27:16;18.20;99.90
41447;DHT22;27185;52.040;4.490;2022-10-17T05:30:01;18.20;99.90
41447;DHT22;27185;52.040;4.490;2022-10-17T05:32:47;18.30;99.90
41447;DHT22;27185;52.040;4.490;2022-10-17T05:35:32;18.40;99.90
41447;DHT22;27185;52.040;4.490;2022-10-17T05:38:18;18.40;99.90
41447;DHT22;27185;52.040;4.490;2022-10-17T05:41:04;18.40;99.90
41447;DHT22;27185;52.040;4.490;2022-10-17T05:43:50;18.40;99.90
41447;DHT22;27185;52.040;4.490;2022-10-17T05:46:36;18.40;99.90
41447;DHT22;27185;52.040;4.490;2022-10-17T05:49:21;18.50;99.90
41447;DHT22;27185;52.040;4.490;2022-10-17T05:52:07;18.50;99.90
41447;DHT22;27185;52.040;4.490;2022-10-17T05:54:52;18.50;99.90
41447;DHT22;27185;52.040;4.490;2022-10-17T05:57:38;18.50;99.90
41447;DHT22;27185;52.040;4.490;2022-10-17T06:00:24;18.40;99.90
41447;DHT22;27185;52.040;4.490;2022-10-17T06:03:11;18.40;99.90
41447;DHT22;27185;52.040;4.490;2022-10-17T06:06:05;18.40;99.90
41447;DHT22;27185;52.040;4.490;2022-10-17T06:08:51;18.40;99.90
41447;DHT22;27185;52.040;4.490;2022-10-17T06:11:37;18.40;99.90
41447;DHT22;27185;52.040;4.490;2022-10-17T06:14:22;18.40;99.90
41447;DHT22;27185;52.040;4.490;2022-10-17T06:17:08;18.40;99.90
41447;DHT22;27185;52.040;4.490;2022-10-17T06:19:53;18.40;99.90
41447;DHT22;27185;52.040;4.490;2022-10-17T06:22:39;18.40;99.90
41447;DHT22;27185;52.040;4.490;2022-10-17T06:25:24;18.40;99.90
41447;DHT22;27185;52.040;4.490;2022-10-17T06:28:10;18.40;99.90
41447;DHT22;27185;52.040;4.490;2022-10-17T06:30:57;18.40;99.90
41447;DHT22;27185;52.040;4.490;2022-10-17T06:33:42;18.40;99.90
41447;DHT22;27185;52.040;4.490;2022-10-17T06:36:28;18.40;99.90
41447;DHT22;27185;52.040;4.490;2022-10-17T06:39:14;18.40;99.90
41447;DHT22;27185;52.040;4.490;2022-10-17T06:42:00;18.40;99.90
41447;DHT22;27185;52.040;4.490;2022-10-17T06:44:46;18.40;99.90
41447;DHT22;27185;52.040;4.490;2022-10-17T06:47:31;18.40;99.90
41447;DHT22;27185;52.040;4.490;2022-10-17T06:50:17;18.40;99.90
41447;DHT22;27185;52.040;4.490;2022-10-17T06:53:03;18.40;99.90
41447;DHT22;27185;52.040;4.490;2022-10-17T06:55:51;18.40;99.90
41447;DHT22;27185;52.040;4.490;2022-10-17T06:58:39;18.50;99.90
41447;DHT22;27185;52.040;4.490;2022-10-17T07:01:24;18.40;99.90
41447;DHT22;27185;52.040;4.490;2022-10-17T07:04:10;18.40;99.90
41447;DHT22;27185;52.040;4.490;2022-10-17T07:06:56;18.50;99.90
41447;DHT22;27185;52.040;4.490;2022-10-17T07:09:42;18.50;99.90
41447;DHT22;27185;52.040;4.490;2022-10-17T07:12:27;18.50;99.90
41447;DHT22;27185;52.040;4.490;2022-10-17T07:15:13;18.50;99.90
41447;DHT22;27185;52.040;4.490;2022-10-17T07:17:58;18.50;99.90
41447;DHT22;27185;52.040;4.490;2022-10-17T07:20:52;18.60;99.90
41447;DHT22;27185;52.040;4.490;2022-10-17T07:23:38;18.60;99.90
41447;DHT22;27185;52.040;4.490;2022-10-17T07:26:24;18.60;99.90
41447;DHT22;27185;52.040;4.490;2022-10-17T07:29:09;18.60;99.90
41447;DHT22;27185;52.040;4.490;2022-10-17T07:31:55;18.70;99.90
41447;DHT22;27185;52.040;4.490;2022-10-17T07:34:40;18.70;99.90
41447;DHT22;27185;52.040;4.490;2022-10-17T07:37:26;18.70;99.90
41447;DHT22;27185;52.040;4.490;2022-10-17T07:40:12;18.70;99.90
41447;DHT22;27185;52.040;4.490;2022-10-17T07:42:57;18.80;99.90
41447;DHT22;27185;52.040;4.490;2022-10-17T07:45:43;18.80;99.90
41447;DHT22;27185;52.040;4.490;2022-10-17T07:48:29;18.80;99.90
41447;DHT22;27185;52.040;4.490;2022-10-17T07:51:14;18.80;99.90
41447;DHT22;27185;52.040;4.490;2022-10-17T07:54:04;18.80;99.90
41447;DHT22;27185;52.040;4.490;2022-10-17T07:56:50;18.80;99.90
41447;DHT22;27185;52.040;4.490;2022-10-17T07:59:36;18.90;99.90
41447;DHT22;27185;52.040;4.490;2022-10-17T08:02:24;18.90;99.90
41447;DHT22;27185;52.040;4.490;2022-10-17T08:05:11;18.90;99.90
41447;DHT22;27185;52.040;4.490;2022-10-17T08:07:56;18.90;99.90
41447;DHT22;27185;52.040;4.490;2022-10-17T08:10:43;18.90;99.90
41447;DHT22;27185;52.040;4.490;2022-10-17T08:13:29;18.90;99.90
41447;DHT22;27185;52.040;4.490;2022-10-17T08:16:14;18.90;99.90
41447;DHT22;27185;52.040;4.490;2022-10-17T08:19:00;18.90;99.90
41447;DHT22;27185;52.040;4.490;2022-10-17T08:21:45;18.90;99.90
41447;DHT22;27185;52.040;4.490;2022-10-17T08:24:31;18.90;99.90
41447;DHT22;27185;52.040;4.490;2022-10-17T08:27:17;18.90;99.90
41447;DHT22;27185;52.040;4.490;2022-10-17T08:30:08;18.90;99.90
41447;DHT22;27185;52.040;4.490;2022-10-17T08:32:54;18.90;99.90
41447;DHT22;27185;52.040;4.490;2022-10-17T08:35:40;18.90;99.90
41447;DHT22;27185;52.040;4.490;2022-10-17T08:38:27;18.90;99.90
41447;DHT22;27185;52.040;4.490;2022-10-17T08:41:44;18.90;99.90
41447;DHT22;27185;52.040;4.490;2022-10-17T08:45:08;18.90;99.90
41447;DHT22;27185;52.040;4.490;2022-10-17T08:47:46;18.90;99.90
41447;DHT22;27185;52.040;4.490;2022-10-17T08:50:36;18.90;99.90
41447;DHT22;27185;52.040;4.490;2022-10-17T08:54:08;18.90;99.90
41447;DHT22;27185;52.040;4.490;2022-10-17T08:56:53;18.90;99.90
41447;DHT22;27185;52.040;4.490;2022-10-17T08:59:39;18.90;99.90
41447;DHT22;27185;52.040;4.490;2022-10-17T09:05:39;18.90;99.90
41447;DHT22;27185;52.040;4.490;2022-10-17T09:11:45;18.90;99.90
41447;DHT22;27185;52.040;4.490;2022-10-17T09:14:44;18.90;99.90
41447;DHT22;27185;52.040;4.490;2022-10-17T09:17:47;19.00;99.90
41447;DHT22;27185;52.040;4.490;2022-10-17T09:20:41;19.00;99.90
41447;DHT22;27185;52.040;4.490;2022-10-17T09:23:42;19.00;99.90
41447;DHT22;27185;52.040;4.490;2022-10-17T09:26:31;19.10;99.90
41447;DHT22;27185;52.040;4.490;2022-10-17T09:29:23;19.10;99.90
41447;DHT22;27185;52.040;4.490;2022-10-17T09:32:22;19.10;99.90
41447;DHT22;27185;52.040;4.490;2022-10-17T09:35:13;19.20;99.90
41447;DHT22;27185;52.040;4.490;2022-10-17T09:37:59;19.20;99.90
41447;DHT22;27185;52.040;4.490;2022-10-17T09:40:58;19.20;99.90
41447;DHT22;27185;52.040;4.490;2022-10-17T09:43:44;19.20;99.90
41447;DHT22;27185;52.040;4.490;2022-10-17T09:46:36;19.20;99.90
41447;DHT22;27185;52.040;4.490;2022-10-17T09:49:32;19.20;99.90
41447;DHT22;27185;52.040;4.490;2022-10-17T09:53:02;19.20;99.90
41447;DHT22;27185;52.040;4.490;2022-10-17T09:55:46;19.20;99.90
41447;DHT22;27185;52.040;4.490;2022-10-17T09:58:45;19.10;99.90
41447;DHT22;27185;52.040;4.490;2022-10-17T10:01:31;19.10;99.90
41447;DHT22;27185;52.040;4.490;2022-10-17T10:04:19;19.10;99.90
41447;DHT22;27185;52.040;4.490;2022-10-17T10:07:08;19.00;99.90
41447;DHT22;27185;52.040;4.490;2022-10-17T10:09:57;19.00;99.90
41447;DHT22;27185;52.040;4.490;2022-10-17T10:13:15;19.00;99.90
41447;DHT22;27185;52.040;4.490;2022-10-17T10:16:20;19.00;99.90
41447;DHT22;27185;52.040;4.490;2022-10-17T10:19:29;19.00;99.90
41447;DHT22;27185;52.040;4.490;2022-10-17T10:22:18;19.00;99.90
41447;DHT22;27185;52.040;4.490;2022-10-17T10:25:14;19.00;99.90
41447;DHT22;27185;52.040;4.490;2022-10-17T10:28:00;18.90;99.90
41447;DHT22;27185;52.040;4.490;2022-10-17T10:30:49;18.90;99.90
41447;DHT22;27185;52.040;4.490;2022-10-17T10:33:40;18.90;99.90
41447;DHT22;27185;52.040;4.490;2022-10-17T10:36:51;18.90;99.90
41447;DHT22;27185;52.040;4.490;2022-10-17T10:42:35;18.90;99.90
41447;DHT22;27185;52.040;4.490;2022-10-17T10:45:25;18.90;99.90
41447;DHT22;27185;52.040;4.490;2022-10-17T10:48:32;18.80;99.90
41447;DHT22;27185;52.040;4.490;2022-10-17T10:51:26;18.80;99.90
41447;DHT22;27185;52.040;4.490;2022-10-17T10:54:23;18.70;99.90
41447;DHT22;27185;52.040;4.490;2022-10-17T10:57:16;18.70;99.90
41447;DHT22;27185;52.040;4.490;2022-10-17T11:00:12;18.60;99.90
41447;DHT22;27185;52.040;4.490;2022-10-17T11:03:26;18.50;99.90
41447;DHT22;27185;52.040;4.490;2022-10-17T11:06:21;18.50;99.90
41447;DHT22;27185;52.040;4.490;2022-10-17T11:10:07;18.50;99.90
41447;DHT22;27185;52.040;4.490;2022-10-17T11:12:58;18.40;99.90
41447;DHT22;27185;52.040;4.490;2022-10-17T11:16:08;18.40;99.90
41447;DHT22;27185;52.040;4.490;2022-10-17T11:19:17;18.40;99.90
41447;DHT22;27185;52.040;4.490;2022-10-17T11:22:14;18.40;99.90
41447;DHT22;27185;52.040;4.490;2022-10-17T11:25:15;18.40;99.90
41447;DHT22;27185;52.040;4.490;2022-10-17T11:28:11;18.40;99.90
41447;DHT22;27185;52.040;4.490;2022-10-17T11:31:11;18.40;99.90
41447;DHT22;27185;52.040;4.490;2022-10-17T11:34:02;18.50;99.90
41447;DHT22;27185;52.040;4.490;2022-10-17T11:36:53;18.50;99.90
41447;DHT22;27185;52.040;4.490;2022-10-17T11:43:00;18.60;99.90
41447;DHT22;27185;52.040;4.490;2022-10-17T11:45:51;18.70;99.90
41447;DHT22;27185;52.040;4.490;2022-10-17T11:48:54;18.80;99.90
41447;DHT22;27185;52.040;4.490;2022-10-17T11:54:51;19.00;99.90
41447;DHT22;27185;52.040;4.490;2022-10-17T11:57:53;19.10;99.90
41447;DHT22;27185;52.040;4.490;2022-10-17T12:03:52;19.30;99.90
41447;DHT22;27185;52.040;4.490;2022-10-17T12:12:42;19.70;99.90
41447;DHT22;27185;52.040;4.490;2022-10-17T12:15:29;19.80;99.90
41447;DHT22;27185;52.040;4.490;2022-10-17T12:18:16;19.80;99.90
41447;DHT22;27185;52.040;4.490;2022-10-17T12:21:01;19.90;99.90
41447;DHT22;27185;52.040;4.490;2022-10-17T12:23:52;20.00;99.90
41447;DHT22;27185;52.040;4.490;2022-10-17T12:26:38;20.00;99.90
41447;DHT22;27185;52.040;4.490;2022-10-17T12:29:27;20.10;99.90
41447;DHT22;27185;52.040;4.490;2022-10-17T12:32:14;20.10;99.90
41447;DHT22;27185;52.040;4.490;2022-10-17T12:35:00;20.10;99.90
41447;DHT22;27185;52.040;4.490;2022-10-17T12:49:43;20.20;99.90
41447;DHT22;27185;52.040;4.490;2022-10-17T12:55:23;20.10;99.90
41447;DHT22;27185;52.040;4.490;2022-10-17T12:58:13;20.00;99.90
41447;DHT22;27185;52.040;4.490;2022-10-17T13:01:01;20.00;99.90
41447;DHT22;27185;52.040;4.490;2022-10-17T13:03:47;20.00;99.90
41447;DHT22;27185;52.040;4.490;2022-10-17T13:06:37;20.00;99.90
41447;DHT22;27185;52.040;4.490;2022-10-17T13:09:31;20.00;99.90
41447;DHT22;27185;52.040;4.490;2022-10-17T13:12:21;20.00;99.90
41447;DHT22;27185;52.040;4.490;2022-10-17T13:15:10;20.00;99.90
41447;DHT22;27185;52.040;4.490;2022-10-17T13:18:01;19.90;99.90
41447;DHT22;27185;52.040;4.490;2022-10-17T13:21:02;20.00;99.90
41447;DHT22;27185;52.040;4.490;2022-10-17T13:23:48;20.00;99.90
41447;DHT22;27185;52.040;4.490;2022-10-17T13:26:37;20.00;99.90
41447;DHT22;27185;52.040;4.490;2022-10-17T13:29:29;20.00;99.90
41447;DHT22;27185;52.040;4.490;2022-10-17T13:32:16;20.10;99.90
41447;DHT22;27185;52.040;4.490;2022-10-17T13:35:08;20.10;99.90
41447;DHT22;27185;52.040;4.490;2022-10-17T13:37:54;20.20;99.90
41447;DHT22;27185;52.040;4.490;2022-10-17T13:40:42;20.20;99.90
41447;DHT22;27185;52.040;4.490;2022-10-17T13:43:29;20.20;99.90
41447;DHT22;27185;52.040;4.490;2022-10-17T13:46:27;20.30;99.90
41447;DHT22;27185;52.040;4.490;2022-10-17T13:49:18;20.30;99.90
41447;DHT22;27185;52.040;4.490;2022-10-17T13:52:13;20.30;99.90
41447;DHT22;27185;52.040;4.490;2022-10-17T13:55:15;20.30;99.90
41447;DHT22;27185;52.040;4.490;2022-10-17T13:58:16;20.40;99.90
41447;DHT22;27185;52.040;4.490;2022-10-17T14:01:02;20.40;99.90
41447;DHT22;27185;52.040;4.490;2022-10-17T14:03:48;20.40;99.90
41447;DHT22;27185;52.040;4.490;2022-10-17T14:06:40;20.40;99.90
41447;DHT22;27185;52.040;4.490;2022-10-17T14:09:28;20.50;99.90
41447;DHT22;27185;52.040;4.490;2022-10-17T14:12:14;20.60;99.90
41447;DHT22;27185;52.040;4.490;2022-10-17T14:15:02;20.60;99.90
41447;DHT22;27185;52.040;4.490;2022-10-17T14:17:55;20.70;99.90
41447;DHT22;27185;52.040;4.490;2022-10-17T14:20:45;20.70;99.90
41447;DHT22;27185;52.040;4.490;2022-10-17T14:23:37;20.70;99.90
41447;DHT22;27185;52.040;4.490;2022-10-17T14:26:23;20.70;99.90
41447;DHT22;27185;52.040;4.490;2022-10-17T14:29:30;20.70;99.90
41447;DHT22;27185;52.040;4.490;2022-10-17T14:32:17;20.70;99.90
41447;DHT22;27185;52.040;4.490;2022-10-17T14:35:04;20.60;99.90
41447;DHT22;27185;52.040;4.490;2022-10-17T14:37:51;20.50;99.90
41447;DHT22;27185;52.040;4.490;2022-10-17T14:40:49;20.50;99.90
41447;DHT22;27185;52.040;4.490;2022-10-17T14:43:34;20.50;99.90
41447;DHT22;27185;52.040;4.490;2022-10-17T14:46:20;20.50;99.90
41447;DHT22;27185;52.040;4.490;2022-10-17T14:49:16;20.40;99.90
41447;DHT22;27185;52.040;4.490;2022-10-17T14:52:11;20.40;99.90
41447;DHT22;27185;52.040;4.490;2022-10-17T14:54:58;20.40;99.90
41447;DHT22;27185;52.040;4.490;2022-10-17T14:57:44;20.40;99.90
41447;DHT22;27185;52.040;4.490;2022-10-17T15:00:30;20.40;99.90
41447;DHT22;27185;52.040;4.490;2022-10-17T15:03:15;20.30;99.90
41447;DHT22;27185;52.040;4.490;2022-10-17T15:06:19;20.40;99.90
41447;DHT22;27185;52.040;4.490;2022-10-17T15:09:05;20.40;99.90
41447;DHT22;27185;52.040;4.490;2022-10-17T15:11:51;20.40;99.90
41447;DHT22;27185;52.040;4.490;2022-10-17T15:14:36;20.30;99.90
41447;DHT22;27185;52.040;4.490;2022-10-17T15:17:27;20.30;99.90
41447;DHT22;27185;52.040;4.490;2022-10-17T15:20:15;20.10;99.90
41447;DHT22;27185;52.040;4.490;2022-10-17T15:23:02;20.10;99.90
41447;DHT22;27185;52.040;4.490;2022-10-17T15:25:47;20.10;99.90
41447;DHT22;27185;52.040;4.490;2022-10-17T15:28:33;20.00;99.90
41447;DHT22;27185;52.040;4.490;2022-10-17T15:31:22;20.00;99.90
41447;DHT22;27185;52.040;4.490;2022-10-17T15:34:07;20.00;99.90
41447;DHT22;27185;52.040;4.490;2022-10-17T15:36:53;20.00;99.90
41447;DHT22;27185;52.040;4.490;2022-10-17T15:39:39;19.90;99.90
41447;DHT22;27185;52.040;4.490;2022-10-17T15:42:27;19.90;99.90
41447;DHT22;27185;52.040;4.490;2022-10-17T15:45:15;19.90;99.90
41447;DHT22;27185;52.040;4.490;2022-10-17T15:48:05;19.80;99.90
41447;DHT22;27185;52.040;4.490;2022-10-17T15:50:51;19.80;99.90
41447;DHT22;27185;52.040;4.490;2022-10-17T15:53:37;19.70;99.90
41447;DHT22;27185;52.040;4.490;2022-10-17T15:56:33;19.70;99.90
41447;DHT22;27185;52.040;4.490;2022-10-17T15:59:28;19.70;99.90
41447;DHT22;27185;52.040;4.490;2022-10-17T16:02:16;19.60;99.90
41447;DHT22;27185;52.040;4.490;2022-10-17T16:05:12;19.60;99.90
41447;DHT22;27185;52.040;4.490;2022-10-17T16:07:59;19.50;99.90
41447;DHT22;27185;52.040;4.490;2022-10-17T16:10:44;19.50;99.90
41447;DHT22;27185;52.040;4.490;2022-10-17T16:13:30;19.40;99.90
41447;DHT22;27185;52.040;4.490;2022-10-17T16:16:16;19.40;99.90
41447;DHT22;27185;52.040;4.490;2022-10-17T16:19:02;19.30;99.90
41447;DHT22;27185;52.040;4.490;2022-10-17T16:21:48;19.30;99.90
41447;DHT22;27185;52.040;4.490;2022-10-17T16:24:33;19.20;99.90
41447;DHT22;27185;52.040;4.490;2022-10-17T16:27:19;19.20;99.90
41447;DHT22;27185;52.040;4.490;2022-10-17T16:30:06;19.10;99.90
41447;DHT22;27185;52.040;4.490;2022-10-17T16:32:53;19.10;99.90
41447;DHT22;27185;52.040;4.490;2022-10-17T16:35:38;19.00;99.90
41447;DHT22;27185;52.040;4.490;2022-10-17T16:38:24;19.00;99.90
41447;DHT22;27185;52.040;4.490;2022-10-17T16:41:36;19.00;99.90
41447;DHT22;27185;52.040;4.490;2022-10-17T16:44:22;18.90;99.90
41447;DHT22;27185;52.040;4.490;2022-10-17T16:47:08;18.90;99.90
41447;DHT22;27185;52.040;4.490;2022-10-17T16:49:53;18.80;99.90
41447;DHT22;27185;52.040;4.490;2022-10-17T16:52:39;18.80;99.90
41447;DHT22;27185;52.040;4.490;2022-10-17T16:55:25;18.70;99.90
41447;DHT22;27185;52.040;4.490;2022-10-17T16:58:10;18.70;99.90
41447;DHT22;27185;52.040;4.490;2022-10-17T17:01:03;18.70;99.90
41447;DHT22;27185;52.040;4.490;2022-10-17T17:03:50;18.60;99.90
41447;DHT22;27185;52.040;4.490;2022-10-17T17:06:36;18.60;99.90
41447;DHT22;27185;52.040;4.490;2022-10-17T17:09:21;18.60;99.90
41447;DHT22;27185;52.040;4.490;2022-10-17T17:12:07;18.60;99.90
41447;DHT22;27185;52.040;4.490;2022-10-17T17:14:52;18.60;99.90
41447;DHT22;27185;52.040;4.490;2022-10-17T17:17:38;18.50;99.90
41447;DHT22;27185;52.040;4.490;2022-10-17T17:20:23;18.50;99.90
41447;DHT22;27185;52.040;4.490;2022-10-17T17:23:09;18.50;99.90
41447;DHT22;27185;52.040;4.490;2022-10-17T17:26:01;18.50;99.90
41447;DHT22;27185;52.040;4.490;2022-10-17T17:28:48;18.50;99.90
41447;DHT22;27185;52.040;4.490;2022-10-17T17:31:35;18.40;99.90
41447;DHT22;27185;52.040;4.490;2022-10-17T17:34:20;18.40;99.90
41447;DHT22;27185;52.040;4.490;2022-10-17T17:37:06;18.40;99.90
41447;DHT22;27185;52.040;4.490;2022-10-17T17:39:51;18.30;99.90
41447;DHT22;27185;52.040;4.490;2022-10-17T17:42:37;18.30;99.90
41447;DHT22;27185;52.040;4.490;2022-10-17T17:45:22;18.30;99.90
41447;DHT22;27185;52.040;4.490;2022-10-17T17:48:08;18.30;99.90
41447;DHT22;27185;52.040;4.490;2022-10-17T17:50:54;18.30;99.90
41447;DHT22;27185;52.040;4.490;2022-10-17T17:53:40;18.20;99.90
41447;DHT22;27185;52.040;4.490;2022-10-17T17:56:27;18.20;99.90
41447;DHT22;27185;52.040;4.490;2022-10-17T17:59:13;18.20;99.90
41447;DHT22;27185;52.040;4.490;2022-10-17T18:01:58;18.20;99.90
41447;DHT22;27185;52.040;4.490;2022-10-17T18:04:44;18.10;99.90
41447;DHT22;27185;52.040;4.490;2022-10-17T18:07:29;18.10;99.90
41447;DHT22;27185;52.040;4.490;2022-10-17T18:10:15;18.10;99.90
41447;DHT22;27185;52.040;4.490;2022-10-17T18:13:00;18.10;99.90
41447;DHT22;27185;52.040;4.490;2022-10-17T18:15:46;18.10;99.90
41447;DHT22;27185;52.040;4.490;2022-10-17T18:18:33;18.10;99.90
41447;DHT22;27185;52.040;4.490;2022-10-17T18:21:18;18.10;99.90
41447;DHT22;27185;52.040;4.490;2022-10-17T18:24:04;18.10;99.90
41447;DHT22;27185;52.040;4.490;2022-10-17T18:26:50;18.10;99.90
41447;DHT22;27185;52.040;4.490;2022-10-17T18:29:38;18.10;99.90
41447;DHT22;27185;52.040;4.490;2022-10-17T18:32:23;18.10;99.90
41447;DHT22;27185;52.040;4.490;2022-10-17T18:35:09;18.10;99.90
41447;DHT22;27185;52.040;4.490;2022-10-17T18:37:54;18.10;99.90
41447;DHT22;27185;52.040;4.490;2022-10-17T18:40:41;18.20;99.90
41447;DHT22;27185;52.040;4.490;2022-10-17T18:43:26;18.20;99.90
41447;DHT22;27185;52.040;4.490;2022-10-17T18:46:24;18.20;99.90
41447;DHT22;27185;52.040;4.490;2022-10-17T18:49:13;18.20;99.90
41447;DHT22;27185;52.040;4.490;2022-10-17T18:51:58;18.20;99.90
41447;DHT22;27185;52.040;4.490;2022-10-17T18:54:44;18.20;99.90
41447;DHT22;27185;52.040;4.490;2022-10-17T18:57:29;18.10;99.90
41447;DHT22;27185;52.040;4.490;2022-10-17T19:00:16;18.10;99.90